createdAt,value
2019-01-20T00:01:55.794Z,-2.54
2019-01-20T00:04:26.609Z,-2.54
2019-01-20T00:06:57.494Z,-2.50
2019-01-20T00:09:28.251Z,-2.44
2019-01-20T00:11:59.040Z,-2.36
2019-01-20T00:14:29.932Z,-2.30
2019-01-20T00:17:00.781Z,-2.38
2019-01-20T00:19:31.626Z,-2.35
2019-01-20T00:22:02.628Z,-2.25
2019-01-20T00:24:33.400Z,-2.20
2019-01-20T00:27:04.355Z,-2.17
2019-01-20T00:29:35.253Z,-2.09
2019-01-20T00:32:06.132Z,-2.07
2019-01-20T00:34:36.956Z,-2.03
2019-01-20T00:37:07.952Z,-1.99
2019-01-20T00:39:38.797Z,-1.99
2019-01-20T00:42:09.681Z,-1.98
2019-01-20T00:44:40.508Z,-1.95
2019-01-20T00:47:11.356Z,-1.91
2019-01-20T00:49:42.273Z,-1.85
2019-01-20T00:52:13.268Z,-1.85
2019-01-20T00:54:44.152Z,-1.85
2019-01-20T00:57:15.222Z,-1.85
2019-01-20T00:59:46.001Z,-1.83
2019-01-20T01:02:17.172Z,-1.81
2019-01-20T01:04:48.120Z,-1.77
2019-01-20T01:07:19.363Z,-1.74
2019-01-20T01:09:50.373Z,-1.73
2019-01-20T01:12:22.358Z,-1.73
2019-01-20T01:14:53.202Z,-1.78
2019-01-20T01:17:24.081Z,-1.75
2019-01-20T01:19:54.979Z,-1.65
2019-01-20T01:22:25.882Z,-1.64
2019-01-20T01:24:56.645Z,-1.65
2019-01-20T01:27:27.601Z,-1.67
2019-01-20T01:29:58.637Z,-1.59
2019-01-20T01:32:29.881Z,-1.56
2019-01-20T01:35:00.676Z,-1.69
2019-01-20T01:37:31.673Z,-1.59
2019-01-20T01:40:02.557Z,-1.54
2019-01-20T01:42:33.360Z,-1.51
2019-01-20T01:45:05.024Z,-1.42
2019-01-20T01:47:35.940Z,-1.51
2019-01-20T01:50:07.543Z,-1.49
2019-01-20T01:52:38.436Z,-1.46
2019-01-20T01:55:10.239Z,-1.48
2019-01-20T01:57:42.177Z,-1.45
2019-01-20T02:00:16.403Z,-1.41
2019-01-20T02:02:47.599Z,-1.39
2019-01-20T02:05:19.614Z,-1.35
2019-01-20T02:07:50.640Z,-1.38
2019-01-20T02:10:22.861Z,-1.37
2019-01-20T02:12:54.339Z,-1.36
2019-01-20T02:15:25.218Z,-1.40
2019-01-20T02:17:56.149Z,-1.42
2019-01-20T02:20:27.131Z,-1.36
2019-01-20T02:22:58.083Z,-1.33
2019-01-20T02:25:28.983Z,-1.29
2019-01-20T02:27:59.858Z,-1.36
2019-01-20T02:30:31.467Z,-1.37
2019-01-20T02:33:02.560Z,-1.38
2019-01-20T02:35:33.472Z,-1.37
2019-01-20T02:38:04.368Z,-1.32
2019-01-20T02:40:35.208Z,-1.27
2019-01-20T02:43:06.532Z,-1.28
2019-01-20T02:45:37.335Z,-1.30
2019-01-20T02:48:08.403Z,-1.31
2019-01-20T02:50:40.231Z,-1.29
2019-01-20T02:53:11.174Z,-1.34
2019-01-20T02:55:42.089Z,-1.26
2019-01-20T02:58:13.251Z,-1.21
2019-01-20T03:00:44.189Z,-1.21
2019-01-20T03:03:15.088Z,-1.19
2019-01-20T03:05:46.990Z,-1.19
2019-01-20T03:08:17.877Z,-1.19
2019-01-20T03:10:48.628Z,-1.23
2019-01-20T03:13:20.270Z,-1.26
2019-01-20T03:15:51.163Z,-1.24
2019-01-20T03:18:22.113Z,-1.18
2019-01-20T03:20:52.906Z,-1.15
2019-01-20T03:23:23.777Z,-1.13
2019-01-20T03:25:54.705Z,-1.24
2019-01-20T03:28:25.880Z,-1.35
2019-01-20T03:30:56.656Z,-1.39
2019-01-20T03:33:27.536Z,-1.37
2019-01-20T03:35:58.422Z,-1.32
2019-01-20T03:38:29.435Z,-1.32
2019-01-20T03:41:00.335Z,-1.25
2019-01-20T03:43:32.339Z,-1.21
2019-01-20T03:46:03.304Z,-1.20
2019-01-20T03:48:34.302Z,-1.16
2019-01-20T03:51:05.183Z,-1.15
2019-01-20T03:53:35.994Z,-1.16
2019-01-20T03:56:06.951Z,-1.13
2019-01-20T03:58:37.780Z,-1.12
2019-01-20T04:01:08.665Z,-1.12
2019-01-20T04:03:39.532Z,-1.11
2019-01-20T04:06:10.399Z,-1.11
2019-01-20T04:08:41.209Z,-1.05
2019-01-20T04:11:12.093Z,-1.09
2019-01-20T04:13:43.004Z,-1.11
2019-01-20T04:16:13.785Z,-1.10
2019-01-20T04:18:44.575Z,-1.07
2019-01-20T04:21:15.419Z,-1.08
2019-01-20T04:23:46.248Z,-1.14
2019-01-20T04:26:17.127Z,-1.19
2019-01-20T04:28:48.045Z,-1.18
2019-01-20T04:31:18.870Z,-1.17
2019-01-20T04:33:49.751Z,-1.15
2019-01-20T04:36:20.683Z,-1.14
2019-01-20T04:38:51.756Z,-1.14
2019-01-20T04:41:22.529Z,-1.19
2019-01-20T04:43:53.220Z,-1.22
2019-01-20T04:46:23.991Z,-1.22
2019-01-20T04:48:55.920Z,-1.24
2019-01-20T04:51:26.685Z,-1.30
2019-01-20T04:53:57.576Z,-1.34
2019-01-20T04:56:28.458Z,-1.42
2019-01-20T04:58:59.511Z,-1.38
2019-01-20T05:01:30.495Z,-1.43
2019-01-20T05:04:01.429Z,-1.41
2019-01-20T05:06:32.315Z,-1.37
2019-01-20T05:09:03.899Z,-1.34
2019-01-20T05:11:34.707Z,-1.33
2019-01-20T05:14:05.689Z,-1.33
2019-01-20T05:16:36.527Z,-1.32
2019-01-20T05:19:07.674Z,-1.34
2019-01-20T05:21:38.479Z,-1.37
2019-01-20T05:24:09.263Z,-1.46
2019-01-20T05:26:40.035Z,-1.47
2019-01-20T05:29:10.830Z,-1.49
2019-01-20T05:31:41.739Z,-1.52
2019-01-20T05:34:12.725Z,-1.50
2019-01-20T05:36:43.518Z,-1.57
2019-01-20T05:39:14.485Z,-1.62
2019-01-20T05:41:45.357Z,-1.66
2019-01-20T05:44:16.157Z,-1.65
2019-01-20T05:46:47.132Z,-1.67
2019-01-20T05:49:18.053Z,-1.76
2019-01-20T05:51:48.940Z,-1.70
2019-01-20T05:54:19.740Z,-1.69
2019-01-20T05:56:50.483Z,-1.76
2019-01-20T05:59:21.310Z,-1.75
2019-01-20T06:01:52.054Z,-1.78
2019-01-20T06:04:22.936Z,-1.77
2019-01-20T06:06:53.860Z,-1.77
2019-01-20T06:09:24.881Z,-1.70
2019-01-20T06:11:55.843Z,-1.67
2019-01-20T06:14:26.793Z,-1.64
2019-01-20T06:16:57.577Z,-1.60
2019-01-20T06:19:28.565Z,-1.59
2019-01-20T06:21:59.488Z,-1.57
2019-01-20T06:24:30.376Z,-1.55
2019-01-20T06:27:01.159Z,-1.66
2019-01-20T06:29:32.108Z,-1.67
2019-01-20T06:32:03.077Z,-1.64
2019-01-20T06:34:33.917Z,-1.59
2019-01-20T06:37:04.917Z,-1.57
2019-01-20T06:39:36.281Z,-1.64
2019-01-20T06:42:07.168Z,-1.60
2019-01-20T06:44:38.056Z,-1.54
2019-01-20T06:47:08.994Z,-1.47
2019-01-20T06:49:39.940Z,-1.46
2019-01-20T06:52:10.828Z,-1.46
2019-01-20T06:54:41.708Z,-1.45
2019-01-20T06:57:12.593Z,-1.42
2019-01-20T06:59:43.373Z,-1.38
2019-01-20T07:02:14.305Z,-1.34
2019-01-20T07:04:45.386Z,-1.33
2019-01-20T07:07:16.284Z,-1.35
2019-01-20T07:09:47.412Z,-1.36
2019-01-20T07:12:18.131Z,-1.33
2019-01-20T07:14:49.005Z,-1.32
2019-01-20T07:17:19.838Z,-1.34
2019-01-20T07:19:50.731Z,-1.32
2019-01-20T07:22:21.510Z,-1.29
2019-01-20T07:24:52.568Z,-1.29
2019-01-20T07:27:23.458Z,-1.36
2019-01-20T07:29:54.548Z,-1.30
2019-01-20T07:32:25.473Z,-1.24
2019-01-20T07:34:56.324Z,-1.17
2019-01-20T07:37:27.113Z,-1.13
2019-01-20T07:39:57.989Z,-1.18
2019-01-20T07:42:28.877Z,-1.15
2019-01-20T07:44:59.589Z,-1.13
2019-01-20T07:47:30.480Z,-1.09
2019-01-20T07:50:01.881Z,-1.06
2019-01-20T07:52:32.633Z,-1.05
2019-01-20T07:55:04.067Z,-1.19
2019-01-20T07:57:34.920Z,-1.15
2019-01-20T08:00:07.533Z,-1.07
2019-01-20T08:02:38.354Z,-1.08
2019-01-20T08:05:09.664Z,-1.09
2019-01-20T08:07:40.512Z,-0.97
2019-01-20T08:10:14.553Z,-0.84
2019-01-20T08:12:45.365Z,-0.79
2019-01-20T08:15:16.772Z,-0.75
2019-01-20T08:17:47.655Z,-0.73
2019-01-20T08:20:19.670Z,-0.66
2019-01-20T08:22:50.552Z,-0.64
2019-01-20T08:25:21.956Z,-0.58
2019-01-20T08:27:52.838Z,-0.66
2019-01-20T08:30:25.673Z,-0.58
2019-01-20T08:32:56.593Z,-0.50
2019-01-20T08:35:27.476Z,-0.45
2019-01-20T08:37:58.337Z,-0.34
2019-01-20T08:40:31.056Z,-0.27
2019-01-20T08:43:02.193Z,-0.23
2019-01-20T08:46:15.160Z,-0.25
2019-01-20T08:48:45.954Z,-0.15
2019-01-20T08:51:17.424Z,-0.46
2019-01-20T08:53:48.243Z,-0.49
2019-01-20T08:56:19.193Z,-0.38
2019-01-20T08:58:50.013Z,-0.37
2019-01-20T09:01:20.962Z,-0.43
2019-01-20T09:03:51.856Z,-0.33
2019-01-20T09:06:22.739Z,-0.22
2019-01-20T09:08:53.678Z,-0.13
2019-01-20T09:11:24.566Z,-0.07
2019-01-20T09:13:55.545Z,-0.07
2019-01-20T09:16:26.325Z,0.01
2019-01-20T09:18:57.608Z,-0.12
2019-01-20T09:21:28.385Z,-0.04
2019-01-20T09:23:58.860Z,0.07
2019-01-20T09:26:29.734Z,-0.14
2019-01-20T09:29:00.566Z,0.00
2019-01-20T09:31:31.420Z,-0.10
2019-01-20T09:34:02.203Z,0.12
2019-01-20T09:36:33.083Z,0.00
2019-01-20T09:39:07.365Z,0.21
2019-01-20T09:41:39.255Z,0.14
2019-01-20T09:44:10.147Z,0.34
2019-01-20T09:46:41.131Z,0.36
2019-01-20T09:49:12.061Z,0.33
2019-01-20T09:51:42.944Z,0.46
2019-01-20T09:54:13.701Z,0.61
2019-01-20T09:56:44.772Z,0.54
2019-01-20T09:59:15.576Z,0.52
2019-01-20T10:01:46.402Z,0.61
2019-01-20T10:04:17.185Z,0.56
2019-01-20T10:06:48.571Z,0.65
2019-01-20T10:09:19.333Z,0.71
2019-01-20T10:11:50.213Z,0.67
2019-01-20T10:14:21.143Z,0.74
2019-01-20T10:16:53.030Z,0.77
2019-01-20T10:19:23.939Z,0.81
2019-01-20T10:21:54.819Z,0.78
2019-01-20T10:24:25.678Z,0.73
2019-01-20T10:26:56.602Z,0.85
2019-01-20T10:29:27.353Z,0.81
2019-01-20T10:31:58.327Z,0.68
2019-01-20T10:34:30.982Z,0.80
2019-01-20T10:37:02.640Z,0.83
2019-01-20T10:39:33.464Z,1.01
2019-01-20T10:42:04.439Z,0.99
2019-01-20T10:44:35.236Z,1.13
2019-01-20T10:47:06.151Z,0.95
2019-01-20T10:49:37.017Z,1.06
2019-01-20T10:52:07.816Z,1.12
2019-01-20T10:54:38.515Z,0.99
2019-01-20T10:57:09.502Z,1.01
2019-01-20T10:59:40.391Z,1.17
2019-01-20T11:02:11.076Z,1.26
2019-01-20T11:04:41.873Z,1.12
2019-01-20T11:07:12.921Z,1.34
2019-01-20T11:09:43.735Z,1.22
2019-01-20T11:12:14.623Z,0.97
2019-01-20T11:14:45.483Z,1.19
2019-01-20T11:17:16.264Z,1.35
2019-01-20T11:19:47.149Z,1.12
2019-01-20T11:22:18.031Z,1.36
2019-01-20T11:24:48.824Z,1.47
2019-01-20T11:27:19.497Z,1.47
2019-01-20T11:29:50.329Z,1.61
2019-01-20T11:32:21.271Z,1.74
2019-01-20T11:34:52.168Z,1.52
2019-01-20T11:37:23.052Z,1.74
2019-01-20T11:39:53.849Z,1.82
2019-01-20T11:42:25.044Z,1.83
2019-01-20T11:44:56.024Z,1.72
2019-01-20T11:47:26.904Z,1.74
2019-01-20T11:49:57.799Z,1.93
2019-01-20T11:52:28.928Z,2.00
2019-01-20T11:54:59.711Z,1.95
2019-01-20T11:57:30.888Z,2.09
2019-01-20T12:00:01.555Z,1.91
2019-01-20T12:02:32.356Z,1.88
2019-01-20T12:05:03.130Z,2.01
2019-01-20T12:07:34.079Z,2.13
2019-01-20T12:10:05.825Z,2.08
2019-01-20T12:12:37.074Z,2.15
2019-01-20T12:15:09.927Z,1.95
2019-01-20T12:17:41.694Z,2.27
2019-01-20T12:20:12.825Z,2.30
2019-01-20T12:22:44.040Z,2.27
2019-01-20T12:25:15.865Z,2.12
2019-01-20T12:27:46.849Z,1.94
2019-01-20T12:30:20.409Z,1.89
2019-01-20T12:32:51.412Z,2.14
2019-01-20T12:35:22.313Z,1.87
2019-01-20T12:37:53.259Z,2.02
2019-01-20T12:40:29.622Z,2.02
2019-01-20T12:43:01.624Z,1.94
2019-01-20T12:45:33.679Z,1.81
2019-01-20T12:48:05.139Z,1.92
2019-01-20T12:50:36.037Z,1.97
2019-01-20T12:53:06.773Z,2.04
2019-01-20T12:55:37.873Z,2.06
2019-01-20T12:58:08.887Z,1.92
2019-01-20T13:00:39.789Z,1.90
2019-01-20T13:03:11.121Z,2.00
2019-01-20T13:05:41.868Z,2.18
2019-01-20T13:08:12.715Z,2.28
2019-01-20T13:10:43.603Z,1.82
2019-01-20T13:13:14.432Z,2.05
2019-01-20T13:15:45.276Z,2.16
2019-01-20T13:18:17.867Z,1.99
2019-01-20T13:20:48.876Z,1.91
2019-01-20T13:23:19.702Z,1.74
2019-01-20T13:25:50.474Z,1.51
2019-01-20T13:28:21.299Z,1.63
2019-01-20T13:30:52.206Z,1.66
2019-01-20T13:33:23.211Z,1.63
2019-01-20T13:35:54.015Z,1.44
2019-01-20T13:38:25.941Z,1.52
2019-01-20T13:41:02.452Z,1.51
2019-01-20T13:43:33.987Z,1.46
2019-01-20T13:46:04.946Z,1.67
2019-01-20T13:48:35.824Z,1.80
2019-01-20T13:51:06.544Z,1.99
2019-01-20T13:53:38.394Z,2.07
2019-01-20T13:56:09.407Z,2.03
2019-01-20T13:58:40.986Z,2.07
2019-01-20T14:01:11.941Z,1.75
2019-01-20T14:03:42.805Z,1.71
2019-01-20T14:06:13.611Z,1.77
2019-01-20T14:08:44.602Z,1.79
2019-01-20T14:11:15.351Z,1.94
2019-01-20T14:13:46.318Z,2.08
2019-01-20T14:16:17.053Z,1.88
2019-01-20T14:18:47.929Z,2.08
2019-01-20T14:21:18.703Z,1.85
2019-01-20T14:23:49.784Z,1.91
2019-01-20T14:26:20.611Z,1.84
2019-01-20T14:28:51.766Z,1.73
2019-01-20T14:31:22.913Z,1.81
2019-01-20T14:33:53.851Z,1.81
2019-01-20T14:36:24.746Z,1.96
2019-01-20T14:38:55.603Z,2.10
2019-01-20T14:41:26.414Z,1.98
2019-01-20T14:43:58.307Z,2.11
2019-01-20T14:46:29.203Z,2.01
2019-01-20T14:49:00.090Z,1.94
2019-01-20T14:51:31.020Z,1.86
2019-01-20T14:54:01.882Z,1.96
2019-01-20T14:56:32.587Z,1.82
2019-01-20T14:59:03.602Z,1.98
2019-01-20T15:01:34.469Z,2.02
2019-01-20T15:04:05.912Z,1.80
2019-01-20T15:06:36.719Z,1.66
2019-01-20T15:09:09.267Z,1.54
2019-01-20T15:11:40.476Z,1.67
2019-01-20T15:14:11.725Z,1.47
2019-01-20T15:16:42.778Z,1.27
2019-01-20T15:19:15.167Z,1.42
2019-01-20T15:21:45.974Z,1.50
2019-01-20T15:24:17.128Z,1.44
2019-01-20T15:26:47.652Z,1.43
2019-01-20T15:29:18.929Z,1.31
2019-01-20T15:31:49.794Z,1.36
2019-01-20T15:34:20.595Z,1.26
2019-01-20T15:36:51.465Z,1.33
2019-01-20T15:39:22.379Z,1.35
2019-01-20T15:41:53.276Z,1.12
2019-01-20T15:44:24.232Z,1.21
2019-01-20T15:46:55.226Z,1.04
2019-01-20T15:49:26.103Z,0.97
2019-01-20T15:51:58.184Z,0.92
2019-01-20T15:54:29.044Z,0.82
2019-01-20T15:56:59.931Z,0.79
2019-01-20T15:59:30.983Z,0.63
2019-01-20T16:02:01.827Z,0.68
2019-01-20T16:04:32.753Z,0.49
2019-01-20T16:07:03.248Z,0.63
2019-01-20T16:09:34.103Z,0.65
2019-01-20T16:12:04.912Z,0.51
2019-01-20T16:14:35.828Z,0.21
2019-01-20T16:17:06.625Z,0.42
2019-01-20T16:19:37.569Z,0.36
2019-01-20T16:22:08.394Z,0.56
2019-01-20T16:24:39.240Z,0.55
2019-01-20T16:27:10.104Z,0.47
2019-01-20T16:29:40.916Z,0.44
2019-01-20T16:32:11.406Z,0.26
2019-01-20T16:34:42.179Z,0.40
2019-01-20T16:37:13.072Z,0.45
2019-01-20T16:39:45.731Z,0.43
2019-01-20T16:42:16.522Z,0.39
2019-01-20T16:44:48.327Z,0.53
2019-01-20T16:47:19.221Z,0.33
2019-01-20T16:49:50.106Z,0.22
2019-01-20T16:52:20.957Z,0.36
2019-01-20T16:54:51.972Z,0.45
2019-01-20T16:57:22.661Z,0.28
2019-01-20T16:59:53.511Z,0.37
2019-01-20T17:02:24.688Z,0.47
2019-01-20T17:04:56.720Z,0.43
2019-01-20T17:07:27.220Z,0.36
2019-01-20T17:09:58.016Z,0.24
2019-01-20T17:12:28.913Z,0.36
2019-01-20T17:15:00.495Z,0.26
2019-01-20T17:17:31.369Z,0.17
2019-01-20T17:20:02.288Z,0.30
2019-01-20T17:22:33.074Z,0.46
2019-01-20T17:25:04.601Z,0.12
2019-01-20T17:27:35.466Z,0.27
2019-01-20T17:30:09.051Z,0.16
2019-01-20T17:32:39.666Z,0.27
2019-01-20T17:35:10.691Z,0.42
2019-01-20T17:37:41.576Z,0.32
2019-01-20T17:40:15.266Z,0.43
2019-01-20T17:42:46.111Z,0.33
2019-01-20T17:45:25.661Z,0.32
2019-01-20T17:47:56.513Z,0.28
2019-01-20T17:50:29.692Z,0.19
2019-01-20T17:53:00.789Z,0.17
2019-01-20T17:55:31.890Z,0.10
2019-01-20T17:58:02.596Z,0.16
2019-01-20T18:00:39.392Z,0.11
2019-01-20T18:03:10.832Z,0.07
2019-01-20T18:05:42.195Z,0.21
2019-01-20T18:08:13.086Z,0.39
2019-01-20T18:10:44.034Z,0.34
2019-01-20T18:13:19.133Z,0.44
2019-01-20T18:15:54.754Z,0.32
2019-01-20T18:18:24.034Z,0.24
2019-01-20T18:20:55.593Z,0.14
2019-01-20T18:23:26.396Z,-0.04
2019-01-20T18:25:57.245Z,0.09
2019-01-20T18:28:27.820Z,0.25
2019-01-20T18:30:58.772Z,0.12
2019-01-20T18:33:29.573Z,0.23
2019-01-20T18:36:00.632Z,0.21
2019-01-20T18:38:31.545Z,0.02
2019-01-20T18:41:02.429Z,0.04
2019-01-20T18:43:33.190Z,-0.02
2019-01-20T18:46:04.353Z,0.00
2019-01-20T18:48:35.270Z,-0.07
2019-01-20T18:51:06.188Z,-0.18
2019-01-20T18:53:36.973Z,-0.33
2019-01-20T18:56:08.209Z,-0.16
2019-01-20T18:58:39.027Z,-0.16
2019-01-20T19:01:11.029Z,-0.16
2019-01-20T19:03:41.860Z,-0.05
2019-01-20T19:06:12.828Z,-0.23
2019-01-20T19:08:43.602Z,-0.20
2019-01-20T19:11:14.502Z,-0.40
2019-01-20T19:13:45.301Z,-0.45
2019-01-20T19:16:16.293Z,-0.35
2019-01-20T19:18:47.177Z,-0.41
2019-01-20T19:21:19.036Z,-0.54
2019-01-20T19:23:49.845Z,-0.47
2019-01-20T19:26:20.641Z,-0.30
2019-01-20T19:28:51.409Z,-0.39
2019-01-20T19:31:22.619Z,-0.33
2019-01-20T19:33:55.199Z,-0.15
2019-01-20T19:36:28.146Z,-0.18
2019-01-20T19:38:58.837Z,-0.14
2019-01-20T19:41:29.912Z,-0.18
2019-01-20T19:44:01.219Z,-0.20
2019-01-20T19:46:32.109Z,-0.31
2019-01-20T19:49:04.713Z,-0.17
2019-01-20T19:51:35.689Z,-0.16
2019-01-20T19:54:06.720Z,-0.29
2019-01-20T19:56:37.621Z,-0.16
2019-01-20T19:59:08.545Z,-0.19
2019-01-20T20:01:39.505Z,-0.15
2019-01-20T20:04:10.392Z,-0.11
2019-01-20T20:06:41.347Z,-0.01
2019-01-20T20:09:14.962Z,-0.10
2019-01-20T20:11:45.917Z,-0.07
2019-01-20T20:14:17.686Z,-0.11
2019-01-20T20:16:48.593Z,-0.03
2019-01-20T20:19:19.308Z,-0.05
2019-01-20T20:21:50.376Z,-0.10
2019-01-20T20:24:25.361Z,0.04
2019-01-20T20:26:53.935Z,0.05
2019-01-20T20:29:24.824Z,0.08
2019-01-20T20:31:55.792Z,0.07
2019-01-20T20:34:26.578Z,-0.01
2019-01-20T20:36:57.561Z,-0.17
2019-01-20T20:39:28.382Z,-0.21
2019-01-20T20:41:59.379Z,-0.09
2019-01-20T20:44:30.250Z,-0.30
2019-01-20T20:47:01.840Z,-0.12
2019-01-20T20:49:32.716Z,-0.16
2019-01-20T20:52:03.853Z,-0.13
2019-01-20T20:55:49.479Z,-0.21
2019-01-20T20:57:07.539Z,-0.23
2019-01-20T20:59:38.324Z,-0.31
2019-01-20T21:02:09.481Z,-0.30
2019-01-20T21:04:40.299Z,-0.22
2019-01-20T21:07:11.176Z,-0.20
2019-01-20T21:09:42.098Z,-0.31
2019-01-20T21:12:13.088Z,-0.26
2019-01-20T21:14:43.947Z,-0.26
2019-01-20T21:17:15.048Z,-0.13
2019-01-20T21:19:46.175Z,-0.35
2019-01-20T21:22:17.009Z,-0.38
2019-01-20T21:24:47.730Z,-0.28
2019-01-20T21:27:18.767Z,-0.24
2019-01-20T21:29:49.609Z,-0.02
2019-01-20T21:32:20.469Z,-0.04
2019-01-20T21:34:51.250Z,-0.21
2019-01-20T21:37:22.425Z,-0.21
2019-01-20T21:39:53.369Z,-0.25
2019-01-20T21:42:24.241Z,-0.20
2019-01-20T21:44:55.135Z,0.00
2019-01-20T21:47:26.128Z,-0.05
2019-01-20T21:49:57.050Z,-0.03
2019-01-20T21:52:28.254Z,-0.01
2019-01-20T21:54:59.096Z,0.10
2019-01-20T21:57:29.681Z,0.04
2019-01-20T22:00:00.565Z,-0.08
2019-01-20T22:02:32.123Z,-0.16
2019-01-20T22:05:02.924Z,-0.10
2019-01-20T22:07:34.205Z,-0.11
2019-01-20T22:10:05.730Z,-0.03
2019-01-20T22:12:36.604Z,0.03
2019-01-20T22:15:07.703Z,-0.06
2019-01-20T22:17:38.856Z,-0.12
2019-01-20T22:20:12.506Z,0.05
2019-01-20T22:22:43.820Z,-0.01
2019-01-20T22:25:14.969Z,-0.03
2019-01-20T22:27:46.013Z,0.05
2019-01-20T22:30:18.869Z,-0.05
2019-01-20T22:32:49.876Z,-0.20
2019-01-20T22:35:20.777Z,-0.20
2019-01-20T22:37:51.819Z,-0.14
2019-01-20T22:40:22.713Z,-0.24
2019-01-20T22:42:53.602Z,-0.28
2019-01-20T22:45:28.585Z,-0.22
2019-01-20T22:47:59.757Z,-0.03
2019-01-20T22:50:30.738Z,0.06
2019-01-20T22:53:01.652Z,-0.03
2019-01-20T22:55:32.441Z,0.02
2019-01-20T22:58:03.422Z,-0.01
2019-01-20T23:00:51.027Z,0.02
2019-01-20T23:03:22.372Z,0.05
2019-01-20T23:05:54.924Z,-0.06
2019-01-20T23:08:25.946Z,0.07
2019-01-20T23:10:56.744Z,0.00
2019-01-20T23:13:27.530Z,-0.10
2019-01-20T23:15:58.315Z,0.10
2019-01-20T23:18:29.979Z,0.24
2019-01-20T23:21:00.869Z,-0.01
2019-01-20T23:23:31.789Z,-0.03
2019-01-20T23:26:02.699Z,-0.05
2019-01-20T23:28:33.565Z,-0.06
2019-01-20T23:31:04.726Z,-0.22
2019-01-20T23:33:35.850Z,-0.09
2019-01-20T23:36:06.818Z,-0.09
2019-01-20T23:38:37.599Z,-0.11
2019-01-20T23:41:08.485Z,-0.04
2019-01-20T23:43:39.180Z,-0.15
2019-01-20T23:46:09.994Z,-0.13
2019-01-20T23:48:40.876Z,-0.24
2019-01-20T23:51:11.771Z,-0.21
2019-01-20T23:53:42.704Z,-0.28
2019-01-20T23:56:13.537Z,-0.36
2019-01-20T23:58:44.401Z,-0.32
